Time,TemperatureF,DewpointF,PressureIn,WindDirection,WindDirectionDegrees,WindSpeedMPH,WindSpeedGustMPH,Humidity,HourlyPrecipIn,Conditions,Clouds,dailyrainin,SolarRadiationWatts/m^2,SoftwareType,DateUTC
2013-01-27 00:01:00,39.0,23.0,-100.00,NNW,335,8.0,11.0,53,0.00,,,0.00,0.000000,,2013-01-27 07:01:00,
2013-01-27 00:13:00,39.0,23.0,-100.00,NNW,335,8.0,11.0,53,0.00,,,0.00,0.000000,,2013-01-27 07:13:00,
2013-01-27 00:21:00,38.0,24.0,-100.00,NNW,341,14.0,16.0,57,0.00,,,-99.99,0.000000,,2013-01-27 07:21:00,
2013-01-27 00:42:00,38.0,24.0,-100.00,NNW,341,14.0,16.0,57,0.00,,,-99.99,0.000000,,2013-01-27 07:42:00,
2013-01-27 00:52:00,38.0,24.0,-100.00,NNW,341,14.0,16.0,57,0.00,,,-99.99,0.000000,,2013-01-27 07:52:00,
2013-01-27 01:01:00,38.0,24.0,-100.00,NNW,341,14.0,16.0,57,0.00,,,-99.99,0.000000,,2013-01-27 08:01:00,
2013-01-27 01:11:00,38.0,24.0,-100.00,NNW,341,14.0,16.0,57,0.00,,,-99.99,0.000000,,2013-01-27 08:11:00,
2013-01-27 01:21:00,37.0,23.0,-100.00,NNW,336,13.0,17.0,57,0.00,,,0.00,0.000000,,2013-01-27 08:21:00,
2013-01-27 01:42:00,37.0,23.0,-100.00,NNW,336,13.0,17.0,57,0.00,,,0.00,0.000000,,2013-01-27 08:42:00,
2013-01-27 01:52:00,37.0,23.0,-100.00,NNW,336,13.0,17.0,57,0.00,,,0.00,0.000000,,2013-01-27 08:52:00,
2013-01-27 02:02:00,37.0,23.0,-100.00,NNW,336,13.0,17.0,57,0.00,,,0.00,0.000000,,2013-01-27 09:02:00,
2013-01-27 02:11:00,37.0,23.0,-100.00,NNW,336,13.0,17.0,57,0.00,,,0.00,0.000000,,2013-01-27 09:11:00,
2013-01-27 02:21:00,32.0,25.0,-100.00,NW,322,8.0,15.0,74,0.00,,,0.00,0.000000,,2013-01-27 09:21:00,
2013-01-27 02:42:00,32.0,25.0,-100.00,NW,322,8.0,15.0,74,0.00,,,0.00,0.000000,,2013-01-27 09:42:00,
2013-01-27 02:52:00,32.0,25.0,-100.00,NW,322,8.0,15.0,74,0.00,,,0.00,0.000000,,2013-01-27 09:52:00,
2013-01-27 03:01:00,32.0,25.0,-100.00,NW,322,8.0,15.0,74,0.00,,,0.00,0.000000,,2013-01-27 10:01:00,
2013-01-27 03:11:00,32.0,25.0,-100.00,NW,322,8.0,15.0,74,0.00,,,0.00,0.000000,,2013-01-27 10:11:00,
2013-01-27 03:21:00,32.0,26.0,-100.00,West,270,3.0,11.0,77,0.00,,,0.00,0.000000,,2013-01-27 10:21:00,
2013-01-27 03:42:00,32.0,26.0,-100.00,West,270,3.0,11.0,77,0.00,,,0.00,0.000000,,2013-01-27 10:42:00,
2013-01-27 03:52:00,32.0,26.0,-100.00,West,270,3.0,11.0,77,0.00,,,0.00,0.000000,,2013-01-27 10:52:00,
2013-01-27 04:01:00,32.0,26.0,-100.00,West,270,3.0,11.0,77,0.00,,,0.00,0.000000,,2013-01-27 11:01:00,
2013-01-27 04:11:00,32.0,26.0,-100.00,West,270,3.0,11.0,77,0.00,,,0.00,0.000000,,2013-01-27 11:11:00,
2013-01-27 04:21:00,31.0,26.0,-100.00,NW,305,4.0,7.0,83,0.00,,,0.00,0.000000,,2013-01-27 11:21:00,
2013-01-27 04:42:00,31.0,26.0,-100.00,NW,305,4.0,7.0,83,0.00,,,0.00,0.000000,,2013-01-27 11:42:00,
2013-01-27 04:52:00,31.0,26.0,-100.00,NW,305,4.0,7.0,83,0.00,,,0.00,0.000000,,2013-01-27 11:52:00,
2013-01-27 05:02:00,31.0,26.0,-100.00,NW,305,4.0,7.0,83,0.00,,,0.00,0.000000,,2013-01-27 12:02:00,
2013-01-27 05:11:00,31.0,26.0,-100.00,NW,305,4.0,7.0,83,0.00,,,0.00,0.000000,,2013-01-27 12:11:00,
2013-01-27 05:21:00,32.0,28.0,-100.00,West,273,5.0,7.0,84,0.00,,,0.00,0.000000,,2013-01-27 12:21:00,
2013-01-27 05:42:00,32.0,28.0,-100.00,West,273,5.0,7.0,84,0.00,,,0.00,0.000000,,2013-01-27 12:42:00,
2013-01-27 05:52:00,32.0,28.0,-100.00,West,273,5.0,7.0,84,0.00,,,0.00,0.000000,,2013-01-27 12:52:00,
2013-01-27 06:02:00,32.0,28.0,-100.00,West,273,5.0,7.0,84,0.00,,,0.00,0.000000,,2013-01-27 13:02:00,
2013-01-27 06:11:00,32.0,28.0,-100.00,West,273,5.0,7.0,84,0.00,,,0.00,0.000000,,2013-01-27 13:11:00,
2013-01-27 06:21:00,32.0,27.0,-100.00,WNW,294,5.0,9.0,83,0.00,,,0.00,0.000000,,2013-01-27 13:21:00,
2013-01-27 06:42:00,32.0,27.0,-100.00,WNW,294,5.0,9.0,83,0.00,,,0.00,0.000000,,2013-01-27 13:42:00,
2013-01-27 06:52:00,32.0,27.0,-100.00,WNW,294,5.0,9.0,83,0.00,,,0.00,0.000000,,2013-01-27 13:52:00,
2013-01-27 07:01:00,32.0,27.0,-100.00,WNW,294,5.0,9.0,83,0.00,,,0.00,0.000000,,2013-01-27 14:01:00,
2013-01-27 07:11:00,32.0,27.0,-100.00,WNW,294,5.0,9.0,83,0.00,,,0.00,0.000000,,2013-01-27 14:11:00,
2013-01-27 07:21:00,32.0,27.0,-100.00,North,4,2.0,6.0,83,0.00,,,0.00,0.000000,,2013-01-27 14:21:00,
2013-01-27 07:53:00,32.0,27.0,-100.00,North,4,2.0,6.0,83,0.00,,,0.00,0.000000,,2013-01-27 14:53:00,
2013-01-27 08:01:00,32.0,27.0,-100.00,North,4,2.0,6.0,83,0.00,,,0.00,0.000000,,2013-01-27 15:01:00,
2013-01-27 08:11:00,32.0,27.0,-100.00,North,4,2.0,6.0,83,0.00,,,0.00,0.000000,,2013-01-27 15:11:00,
2013-01-27 08:21:00,32.0,28.0,-100.00,SSE,166,4.0,5.0,85,0.00,,,0.00,5.000000,,2013-01-27 15:21:00,
2013-01-27 08:42:00,32.0,28.0,-100.00,SSE,166,4.0,5.0,85,0.00,,,0.00,5.000000,,2013-01-27 15:42:00,
2013-01-27 08:52:00,32.0,28.0,-100.00,SSE,166,4.0,5.0,85,0.00,,,0.00,5.000000,,2013-01-27 15:52:00,
2013-01-27 09:02:00,32.0,28.0,-100.00,SSE,166,4.0,5.0,85,0.00,,,0.00,5.000000,,2013-01-27 16:02:00,
2013-01-27 09:11:00,32.0,28.0,-100.00,SSE,166,4.0,5.0,85,0.00,,,0.00,5.000000,,2013-01-27 16:11:00,
2013-01-27 09:21:00,33.0,28.0,-100.00,SW,218,5.0,8.0,83,0.00,,,0.00,20.000000,,2013-01-27 16:21:00,
2013-01-27 09:42:00,33.0,28.0,-100.00,SW,218,5.0,8.0,83,0.00,,,0.00,20.000000,,2013-01-27 16:42:00,
2013-01-27 09:53:00,33.0,28.0,-100.00,SW,218,5.0,8.0,83,0.00,,,0.00,20.000000,,2013-01-27 16:53:00,
2013-01-27 10:01:00,33.0,28.0,-100.00,SW,218,5.0,8.0,83,0.00,,,0.00,20.000000,,2013-01-27 17:01:00,
2013-01-27 10:11:00,33.0,28.0,-100.00,SW,218,5.0,8.0,83,0.00,,,0.00,20.000000,,2013-01-27 17:11:00,
2013-01-27 10:21:00,31.0,28.0,-100.00,WNW,295,7.0,9.0,89,0.00,,,0.00,47.000000,,2013-01-27 17:21:00,
2013-01-27 10:42:00,31.0,28.0,-100.00,WNW,295,7.0,9.0,89,0.00,,,0.00,47.000000,,2013-01-27 17:42:00,
2013-01-27 10:52:00,31.0,28.0,-100.00,WNW,295,7.0,9.0,89,0.00,,,0.00,47.000000,,2013-01-27 17:52:00,
2013-01-27 11:02:00,31.0,28.0,-100.00,WNW,295,7.0,9.0,89,0.00,,,0.00,47.000000,,2013-01-27 18:02:00,
2013-01-27 11:11:00,31.0,28.0,-100.00,WNW,295,7.0,9.0,89,0.00,,,0.00,47.000000,,2013-01-27 18:11:00,
2013-01-27 11:21:00,32.0,30.0,-100.00,West,265,3.0,9.0,94,0.00,,,0.00,58.000000,,2013-01-27 18:21:00,
2013-01-27 11:42:00,32.0,30.0,-100.00,West,265,3.0,9.0,94,0.00,,,0.00,58.000000,,2013-01-27 18:42:00,
2013-01-27 11:52:00,32.0,30.0,-100.00,West,265,3.0,9.0,94,0.00,,,0.00,58.000000,,2013-01-27 18:52:00,
2013-01-27 12:01:00,32.0,30.0,-100.00,West,265,3.0,9.0,94,0.00,,,0.00,58.000000,,2013-01-27 19:01:00,
2013-01-27 12:11:00,32.0,30.0,-100.00,West,265,3.0,9.0,94,0.00,,,0.00,58.000000,,2013-01-27 19:11:00,
2013-01-27 12:21:00,33.0,31.0,-100.00,WSW,258,3.0,6.0,94,0.01,,,0.01,80.000000,,2013-01-27 19:21:00,
2013-01-27 12:42:00,33.0,31.0,-100.00,WSW,258,3.0,6.0,94,0.01,,,0.01,80.000000,,2013-01-27 19:42:00,
2013-01-27 12:52:00,33.0,31.0,-100.00,WSW,258,3.0,6.0,94,0.01,,,0.01,80.000000,,2013-01-27 19:52:00,
2013-01-27 13:02:00,33.0,31.0,-100.00,WSW,258,3.0,6.0,94,0.01,,,0.01,80.000000,,2013-01-27 20:02:00,
2013-01-27 13:11:00,33.0,31.0,-100.00,WSW,258,3.0,6.0,94,0.01,,,0.01,80.000000,,2013-01-27 20:11:00,
2013-01-27 13:21:00,33.0,32.0,-100.00,WSW,256,5.0,7.0,96,0.02,,,0.03,72.000000,,2013-01-27 20:21:00,
2013-01-27 13:42:00,33.0,32.0,-100.00,WSW,256,5.0,7.0,96,0.02,,,0.03,72.000000,,2013-01-27 20:42:00,
2013-01-27 13:52:00,33.0,32.0,-100.00,WSW,256,5.0,7.0,96,0.02,,,0.03,72.000000,,2013-01-27 20:52:00,
2013-01-27 14:02:00,33.0,32.0,-100.00,WSW,256,5.0,7.0,96,0.02,,,0.03,72.000000,,2013-01-27 21:02:00,
2013-01-27 14:11:00,33.0,32.0,-100.00,WSW,256,5.0,7.0,96,0.02,,,0.03,72.000000,,2013-01-27 21:11:00,
2013-01-27 14:21:00,31.0,30.0,-100.00,NW,307,10.0,17.0,96,0.01,,,0.04,62.000000,,2013-01-27 21:21:00,
2013-01-27 14:43:00,31.0,30.0,-100.00,NW,307,10.0,17.0,96,0.01,,,0.04,62.000000,,2013-01-27 21:43:00,
2013-01-27 14:52:00,31.0,30.0,-100.00,NW,307,10.0,17.0,96,0.01,,,0.04,62.000000,,2013-01-27 21:52:00,
2013-01-27 15:01:00,31.0,30.0,-100.00,NW,307,10.0,17.0,96,0.01,,,0.04,62.000000,,2013-01-27 22:01:00,
2013-01-27 15:11:00,31.0,30.0,-100.00,NW,307,10.0,17.0,96,0.01,,,0.04,62.000000,,2013-01-27 22:11:00,
2013-01-27 15:21:00,31.0,30.0,-100.00,NW,322,10.0,16.0,96,0.00,,,0.04,69.000000,,2013-01-27 22:21:00,
2013-01-27 15:42:00,31.0,30.0,-100.00,NW,322,10.0,16.0,96,0.00,,,0.04,69.000000,,2013-01-27 22:42:00,
2013-01-27 15:52:00,31.0,30.0,-100.00,NW,322,10.0,16.0,96,0.00,,,0.04,69.000000,,2013-01-27 22:52:00,
2013-01-27 16:02:00,31.0,30.0,-100.00,NW,322,10.0,16.0,96,0.00,,,0.04,69.000000,,2013-01-27 23:02:00,
2013-01-27 16:11:00,31.0,30.0,-100.00,NW,322,10.0,16.0,96,0.00,,,0.04,69.000000,,2013-01-27 23:11:00,
2013-01-27 16:21:00,29.0,28.0,-100.00,North,353,13.0,17.0,97,0.00,,,0.04,27.000000,,2013-01-27 23:21:00,
2013-01-27 16:42:00,29.0,28.0,-100.00,North,353,13.0,17.0,97,0.00,,,0.04,27.000000,,2013-01-27 23:42:00,
2013-01-27 16:53:00,29.0,28.0,-100.00,North,353,13.0,17.0,97,0.00,,,0.04,27.000000,,2013-01-27 23:53:00,
2013-01-27 17:01:00,29.0,28.0,-100.00,North,353,13.0,17.0,97,0.00,,,0.04,27.000000,,2013-01-28 00:01:00,
2013-01-27 17:11:00,29.0,28.0,-100.00,North,353,13.0,17.0,97,0.00,,,0.04,27.000000,,2013-01-28 00:11:00,
2013-01-27 17:21:00,29.0,28.0,-100.00,North,1,9.0,18.0,97,0.00,,,0.04,6.000000,,2013-01-28 00:21:00,
2013-01-27 17:42:00,29.0,28.0,-100.00,North,1,9.0,18.0,97,0.00,,,0.04,6.000000,,2013-01-28 00:42:00,
2013-01-27 17:52:00,29.0,28.0,-100.00,North,1,9.0,18.0,97,0.00,,,0.04,6.000000,,2013-01-28 00:52:00,
2013-01-27 18:01:00,29.0,28.0,-100.00,North,1,9.0,18.0,97,0.00,,,0.04,6.000000,,2013-01-28 01:01:00,
2013-01-27 18:11:00,29.0,28.0,-100.00,North,1,9.0,18.0,97,0.00,,,0.04,6.000000,,2013-01-28 01:11:00,
2013-01-27 18:21:00,29.0,28.0,-100.00,NW,323,4.0,11.0,97,0.00,,,0.04,0.000000,,2013-01-28 01:21:00,
2013-01-27 18:42:00,29.0,28.0,-100.00,NW,323,4.0,11.0,97,0.00,,,0.04,0.000000,,2013-01-28 01:42:00,
2013-01-27 18:52:00,29.0,28.0,-100.00,NW,323,4.0,11.0,97,0.00,,,0.04,0.000000,,2013-01-28 01:52:00,
2013-01-27 19:02:00,29.0,28.0,-100.00,NW,323,4.0,11.0,97,0.00,,,0.04,0.000000,,2013-01-28 02:02:00,
2013-01-27 19:11:00,29.0,28.0,-100.00,NW,323,4.0,11.0,97,0.00,,,0.04,0.000000,,2013-01-28 02:11:00,
2013-01-27 19:21:00,28.0,27.0,-100.00,NW,316,5.0,9.0,97,0.00,,,0.04,0.000000,,2013-01-28 02:21:00,
2013-01-27 19:42:00,28.0,27.0,-100.00,NW,316,5.0,9.0,97,0.00,,,0.04,0.000000,,2013-01-28 02:42:00,
2013-01-27 19:52:00,28.0,27.0,-100.00,NW,316,5.0,9.0,97,0.00,,,0.04,0.000000,,2013-01-28 02:52:00,
2013-01-27 20:02:00,28.0,27.0,-100.00,NW,316,5.0,9.0,97,0.00,,,0.04,0.000000,,2013-01-28 03:02:00,
2013-01-27 20:11:00,28.0,27.0,-100.00,NW,316,5.0,9.0,97,0.00,,,0.04,0.000000,,2013-01-28 03:11:00,
2013-01-27 20:21:00,28.0,27.0,-100.00,SW,225,1.0,7.0,97,0.00,,,0.04,0.000000,,2013-01-28 03:21:00,
2013-01-27 20:42:00,28.0,27.0,-100.00,SW,225,1.0,7.0,97,0.00,,,0.04,0.000000,,2013-01-28 03:42:00,
2013-01-27 20:53:00,28.0,27.0,-100.00,SW,225,1.0,7.0,97,0.00,,,0.04,0.000000,,2013-01-28 03:53:00,
2013-01-27 21:01:00,28.0,27.0,-100.00,SW,225,1.0,7.0,97,0.00,,,0.04,0.000000,,2013-01-28 04:01:00,
2013-01-27 21:11:00,28.0,27.0,-100.00,SW,225,1.0,7.0,97,0.00,,,0.04,0.000000,,2013-01-28 04:11:00,
2013-01-27 21:21:00,28.0,27.0,-100.00,SSW,213,2.0,4.0,97,0.00,,,0.04,0.000000,,2013-01-28 04:21:00,
2013-01-27 21:42:00,28.0,27.0,-100.00,SSW,213,2.0,4.0,97,0.00,,,0.04,0.000000,,2013-01-28 04:42:00,
2013-01-27 21:52:00,28.0,27.0,-100.00,SSW,213,2.0,4.0,97,0.00,,,0.04,0.000000,,2013-01-28 04:52:00,
2013-01-27 22:03:00,28.0,27.0,-100.00,SSW,213,2.0,4.0,97,0.00,,,0.04,0.000000,,2013-01-28 05:03:00,
2013-01-27 22:11:00,28.0,27.0,-100.00,SSW,213,2.0,4.0,97,0.00,,,0.04,0.000000,,2013-01-28 05:11:00,
2013-01-27 22:21:00,28.0,27.0,-100.00,South,183,3.0,5.0,97,0.00,,,-99.99,0.000000,,2013-01-28 05:21:00,
2013-01-27 22:42:00,28.0,27.0,-100.00,South,183,3.0,5.0,97,0.00,,,-99.99,0.000000,,2013-01-28 05:42:00,
2013-01-27 22:52:00,28.0,27.0,-100.00,South,183,3.0,5.0,97,0.00,,,-99.99,0.000000,,2013-01-28 05:52:00,
2013-01-27 23:02:00,28.0,27.0,-100.00,South,183,3.0,5.0,97,0.00,,,-99.99,0.000000,,2013-01-28 06:02:00,
2013-01-27 23:11:00,28.0,27.0,-100.00,South,183,3.0,5.0,97,0.00,,,-99.99,0.000000,,2013-01-28 06:11:00,
2013-01-27 23:21:00,27.0,26.0,-100.00,South,176,6.0,8.0,96,0.00,,,0.04,0.000000,,2013-01-28 06:21:00,
2013-01-27 23:42:00,27.0,26.0,-100.00,South,176,6.0,8.0,96,0.00,,,0.04,0.000000,,2013-01-28 06:42:00,
2013-01-27 23:52:00,27.0,26.0,-100.00,South,176,6.0,8.0,96,0.00,,,0.04,0.000000,,2013-01-28 06:52:00,